sensor_id;sensor_type;location;lat;lon;timestamp;pressure;altitude;pressure_sealevel;temperature;humidity
81162;BME280;70638;-33.792;151.032;2023-12-07T00:00:09;101002.58;;;36.43;35.70
81162;BME280;70638;-33.792;151.032;2023-12-07T00:02:36;101007.38;;;34.42;35.87
81162;BME280;70638;-33.792;151.032;2023-12-07T00:05:01;101003.20;;;35.45;34.50
81162;BME280;70638;-33.792;151.032;2023-12-07T00:07:33;101019.70;;;35.20;34.71
81162;BME280;70638;-33.792;151.032;2023-12-07T00:10:03;101021.85;;;34.82;35.91
81162;BME280;70638;-33.792;151.032;2023-12-07T00:12:33;101024.62;;;35.83;33.74
81162;BME280;70638;-33.792;151.032;2023-12-07T00:15:05;101015.12;;;37.03;32.80
81162;BME280;70638;-33.792;151.032;2023-12-07T00:17:34;101018.96;;;37.36;31.66
81162;BME280;70638;-33.792;151.032;2023-12-07T00:20:07;101025.23;;;36.65;32.06
81162;BME280;70638;-33.792;151.032;2023-12-07T00:22:36;101022.94;;;36.29;32.88
81162;BME280;70638;-33.792;151.032;2023-12-07T00:25:08;101026.82;;;36.40;32.29
81162;BME280;70638;-33.792;151.032;2023-12-07T00:27:36;101019.20;;;35.77;33.18
81162;BME280;70638;-33.792;151.032;2023-12-07T00:30:08;101006.88;;;36.83;31.52
81162;BME280;70638;-33.792;151.032;2023-12-07T00:32:38;101007.30;;;37.26;31.42
81162;BME280;70638;-33.792;151.032;2023-12-07T00:35:08;100998.54;;;35.91;35.48
81162;BME280;70638;-33.792;151.032;2023-12-07T00:37:39;100984.27;;;35.17;35.16
81162;BME280;70638;-33.792;151.032;2023-12-07T00:40:11;100973.50;;;35.32;35.96
81162;BME280;70638;-33.792;151.032;2023-12-07T00:42:40;100969.42;;;35.43;35.95
81162;BME280;70638;-33.792;151.032;2023-12-07T00:45:18;100974.80;;;34.65;35.26
81162;BME280;70638;-33.792;151.032;2023-12-07T00:47:45;100966.89;;;33.77;38.05
81162;BME280;70638;-33.792;151.032;2023-12-07T00:50:12;100967.70;;;32.93;40.33
81162;BME280;70638;-33.792;151.032;2023-12-07T00:52:41;100976.89;;;32.16;40.87
81162;BME280;70638;-33.792;151.032;2023-12-07T00:55:12;100963.50;;;31.38;43.47
81162;BME280;70638;-33.792;151.032;2023-12-07T00:57:42;100954.69;;;32.65;42.99
81162;BME280;70638;-33.792;151.032;2023-12-07T01:00:14;100951.03;;;32.91;40.97
81162;BME280;70638;-33.792;151.032;2023-12-07T01:02:43;100948.00;;;31.47;42.43
81162;BME280;70638;-33.792;151.032;2023-12-07T01:05:13;100944.14;;;31.38;44.66
81162;BME280;70638;-33.792;151.032;2023-12-07T01:07:45;100937.95;;;31.30;44.50
81162;BME280;70638;-33.792;151.032;2023-12-07T01:10:31;100939.36;;;31.09;44.70
81162;BME280;70638;-33.792;151.032;2023-12-07T01:12:45;100934.86;;;31.16;44.59
81162;BME280;70638;-33.792;151.032;2023-12-07T01:15:15;100933.79;;;31.17;45.52
81162;BME280;70638;-33.792;151.032;2023-12-07T01:17:45;100928.88;;;31.29;47.83
81162;BME280;70638;-33.792;151.032;2023-12-07T01:20:16;100923.13;;;31.33;47.60
81162;BME280;70638;-33.792;151.032;2023-12-07T01:22:49;100932.36;;;30.63;47.82
81162;BME280;70638;-33.792;151.032;2023-12-07T01:25:23;100926.21;;;30.30;50.15
81162;BME280;70638;-33.792;151.032;2023-12-07T01:27:47;100924.20;;;30.62;51.22
81162;BME280;70638;-33.792;151.032;2023-12-07T01:30:18;100919.08;;;30.76;50.54
81162;BME280;70638;-33.792;151.032;2023-12-07T01:32:48;100919.10;;;30.44;50.87
81162;BME280;70638;-33.792;151.032;2023-12-07T01:35:19;100934.25;;;30.17;52.29
81162;BME280;70638;-33.792;151.032;2023-12-07T01:37:55;100955.68;;;29.84;50.90
81162;BME280;70638;-33.792;151.032;2023-12-07T01:40:25;100964.42;;;30.11;51.48
81162;BME280;70638;-33.792;151.032;2023-12-07T01:42:53;100967.85;;;29.96;51.05
81162;BME280;70638;-33.792;151.032;2023-12-07T01:45:21;100972.84;;;29.65;51.82
81162;BME280;70638;-33.792;151.032;2023-12-07T01:47:51;100972.50;;;29.50;53.08
81162;BME280;70638;-33.792;151.032;2023-12-07T01:50:26;100969.90;;;29.17;53.26
81162;BME280;70638;-33.792;151.032;2023-12-07T01:55:24;100958.68;;;30.21;51.69
81162;BME280;70638;-33.792;151.032;2023-12-07T01:57:54;100953.34;;;29.81;51.18
81162;BME280;70638;-33.792;151.032;2023-12-07T02:00:24;100954.87;;;29.37;53.65
81162;BME280;70638;-33.792;151.032;2023-12-07T02:02:54;100967.22;;;29.40;54.20
81162;BME280;70638;-33.792;151.032;2023-12-07T02:05:33;100976.39;;;29.09;53.62
81162;BME280;70638;-33.792;151.032;2023-12-07T02:07:55;100980.50;;;28.61;55.75
81162;BME280;70638;-33.792;151.032;2023-12-07T02:10:26;100996.46;;;28.36;55.38
81162;BME280;70638;-33.792;151.032;2023-12-07T02:12:56;100998.31;;;27.57;57.44
81162;BME280;70638;-33.792;151.032;2023-12-07T02:15:27;100978.01;;;27.39;58.84
81162;BME280;70638;-33.792;151.032;2023-12-07T02:18:14;100966.41;;;27.59;58.30
81162;BME280;70638;-33.792;151.032;2023-12-07T02:23:03;100976.27;;;27.51;57.95
81162;BME280;70638;-33.792;151.032;2023-12-07T02:25:34;100974.01;;;27.78;57.19
81162;BME280;70638;-33.792;151.032;2023-12-07T02:27:59;100964.77;;;27.78;57.71
81162;BME280;70638;-33.792;151.032;2023-12-07T02:30:30;100980.31;;;28.16;57.53
81162;BME280;70638;-33.792;151.032;2023-12-07T02:33:04;100977.20;;;27.82;57.28
81162;BME280;70638;-33.792;151.032;2023-12-07T02:35:32;100994.91;;;27.53;57.99
81162;BME280;70638;-33.792;151.032;2023-12-07T02:38:02;100982.98;;;27.57;58.66
81162;BME280;70638;-33.792;151.032;2023-12-07T02:40:32;100952.41;;;27.78;56.58
81162;BME280;70638;-33.792;151.032;2023-12-07T02:43:03;100956.22;;;28.31;56.53
81162;BME280;70638;-33.792;151.032;2023-12-07T02:45:33;100957.30;;;27.65;57.82
81162;BME280;70638;-33.792;151.032;2023-12-07T02:48:04;100929.84;;;27.98;57.70
81162;BME280;70638;-33.792;151.032;2023-12-07T02:50:40;100926.08;;;27.92;56.99
81162;BME280;70638;-33.792;151.032;2023-12-07T02:53:03;100928.02;;;28.22;56.54
81162;BME280;70638;-33.792;151.032;2023-12-07T02:55:40;100937.34;;;28.48;54.90
81162;BME280;70638;-33.792;151.032;2023-12-07T02:58:04;100944.84;;;28.82;55.52
81162;BME280;70638;-33.792;151.032;2023-12-07T03:00:37;100953.06;;;28.76;53.45
81162;BME280;70638;-33.792;151.032;2023-12-07T03:03:05;100976.30;;;27.91;54.91
81162;BME280;70638;-33.792;151.032;2023-12-07T03:05:36;100979.40;;;27.96;55.36
81162;BME280;70638;-33.792;151.032;2023-12-07T03:08:08;100998.59;;;27.20;56.46
81162;BME280;70638;-33.792;151.032;2023-12-07T03:10:38;101009.94;;;27.36;56.13
81162;BME280;70638;-33.792;151.032;2023-12-07T03:13:12;101003.20;;;27.42;56.07
81162;BME280;70638;-33.792;151.032;2023-12-07T03:15:51;101011.17;;;27.50;55.72
81162;BME280;70638;-33.792;151.032;2023-12-07T03:18:16;101011.92;;;26.89;56.88
81162;BME280;70638;-33.792;151.032;2023-12-07T03:20:44;101017.67;;;27.03;56.30
81162;BME280;70638;-33.792;151.032;2023-12-07T03:23:10;101018.23;;;26.93;57.47
81162;BME280;70638;-33.792;151.032;2023-12-07T03:25:41;101022.48;;;27.13;56.29
81162;BME280;70638;-33.792;151.032;2023-12-07T03:28:11;101026.83;;;27.26;59.53
81162;BME280;70638;-33.792;151.032;2023-12-07T03:30:41;101022.44;;;27.05;57.18
81162;BME280;70638;-33.792;151.032;2023-12-07T03:33:11;101022.34;;;27.17;58.77
81162;BME280;70638;-33.792;151.032;2023-12-07T03:35:42;101018.83;;;27.18;57.17
81162;BME280;70638;-33.792;151.032;2023-12-07T03:38:16;101009.98;;;26.99;57.11
81162;BME280;70638;-33.792;151.032;2023-12-07T03:40:43;101014.91;;;26.72;58.69
81162;BME280;70638;-33.792;151.032;2023-12-07T03:43:14;101020.25;;;26.94;57.70
81162;BME280;70638;-33.792;151.032;2023-12-07T03:45:44;101021.57;;;27.28;57.67
81162;BME280;70638;-33.792;151.032;2023-12-07T03:48:15;101007.16;;;27.35;56.48
81162;BME280;70638;-33.792;151.032;2023-12-07T03:50:45;101012.07;;;27.10;57.47
81162;BME280;70638;-33.792;151.032;2023-12-07T03:53:16;101009.52;;;27.40;56.12
81162;BME280;70638;-33.792;151.032;2023-12-07T03:55:46;101023.36;;;27.42;56.51
81162;BME280;70638;-33.792;151.032;2023-12-07T03:58:21;101032.64;;;27.02;56.15
81162;BME280;70638;-33.792;151.032;2023-12-07T04:00:47;101049.11;;;26.56;58.08
81162;BME280;70638;-33.792;151.032;2023-12-07T04:03:18;101055.20;;;26.62;57.43
81162;BME280;70638;-33.792;151.032;2023-12-07T04:05:48;101059.09;;;26.79;56.38
81162;BME280;70638;-33.792;151.032;2023-12-07T04:08:18;101049.36;;;26.17;57.59
81162;BME280;70638;-33.792;151.032;2023-12-07T04:10:48;101048.50;;;26.69;57.21
81162;BME280;70638;-33.792;151.032;2023-12-07T04:13:19;101036.77;;;27.08;56.31
81162;BME280;70638;-33.792;151.032;2023-12-07T04:15:49;101034.06;;;27.08;55.21
81162;BME280;70638;-33.792;151.032;2023-12-07T04:18:19;101030.56;;;26.87;56.67
81162;BME280;70638;-33.792;151.032;2023-12-07T04:20:54;101033.66;;;27.21;56.64
81162;BME280;70638;-33.792;151.032;2023-12-07T04:23:19;101023.30;;;27.05;55.28
81162;BME280;70638;-33.792;151.032;2023-12-07T04:25:50;101027.02;;;26.64;55.61
81162;BME280;70638;-33.792;151.032;2023-12-07T04:28:20;101029.77;;;26.57;55.50
81162;BME280;70638;-33.792;151.032;2023-12-07T04:30:50;101031.68;;;26.32;56.13
81162;BME280;70638;-33.792;151.032;2023-12-07T04:33:20;101035.38;;;25.88;57.88
81162;BME280;70638;-33.792;151.032;2023-12-07T04:35:51;101028.09;;;26.12;57.60
81162;BME280;70638;-33.792;151.032;2023-12-07T04:38:25;101023.47;;;25.98;58.13
81162;BME280;70638;-33.792;151.032;2023-12-07T04:40:51;101026.22;;;26.21;58.32
81162;BME280;70638;-33.792;151.032;2023-12-07T04:43:25;101026.95;;;26.17;57.59
81162;BME280;70638;-33.792;151.032;2023-12-07T04:45:52;101036.33;;;26.37;57.38
81162;BME280;70638;-33.792;151.032;2023-12-07T04:48:22;101039.95;;;26.47;58.22
81162;BME280;70638;-33.792;151.032;2023-12-07T04:50:55;101033.03;;;26.30;58.91
81162;BME280;70638;-33.792;151.032;2023-12-07T04:53:28;101035.44;;;26.16;58.35
81162;BME280;70638;-33.792;151.032;2023-12-07T04:55:53;101043.50;;;26.37;59.17
81162;BME280;70638;-33.792;151.032;2023-12-07T04:58:23;101046.49;;;26.22;58.65
81162;BME280;70638;-33.792;151.032;2023-12-07T05:00:54;101048.98;;;26.28;57.99
81162;BME280;70638;-33.792;151.032;2023-12-07T05:03:28;101053.77;;;26.38;58.72
81162;BME280;70638;-33.792;151.032;2023-12-07T05:05:55;101047.39;;;26.44;57.24
81162;BME280;70638;-33.792;151.032;2023-12-07T05:08:26;101055.61;;;26.48;57.89
81162;BME280;70638;-33.792;151.032;2023-12-07T05:10:58;101055.42;;;26.70;56.86
81162;BME280;70638;-33.792;151.032;2023-12-07T05:13:28;101054.20;;;26.61;56.26
81162;BME280;70638;-33.792;151.032;2023-12-07T05:15:59;101057.00;;;26.31;57.95
81162;BME280;70638;-33.792;151.032;2023-12-07T05:18:31;101084.19;;;26.53;58.16
81162;BME280;70638;-33.792;151.032;2023-12-07T05:21:00;101067.87;;;26.69;57.40
81162;BME280;70638;-33.792;151.032;2023-12-07T05:23:30;101073.19;;;26.89;58.42
81162;BME280;70638;-33.792;151.032;2023-12-07T05:26:13;101078.98;;;26.89;57.66
81162;BME280;70638;-33.792;151.032;2023-12-07T05:28:32;101080.58;;;26.57;57.96
81162;BME280;70638;-33.792;151.032;2023-12-07T05:31:02;101078.12;;;26.93;59.34
81162;BME280;70638;-33.792;151.032;2023-12-07T05:33:32;101079.88;;;26.79;57.54
81162;BME280;70638;-33.792;151.032;2023-12-07T05:36:04;101070.95;;;26.61;58.35
81162;BME280;70638;-33.792;151.032;2023-12-07T05:38:33;101060.14;;;26.04;59.72
81162;BME280;70638;-33.792;151.032;2023-12-07T05:41:04;101050.56;;;26.44;60.32
81162;BME280;70638;-33.792;151.032;2023-12-07T05:43:36;101052.94;;;26.82;58.33
81162;BME280;70638;-33.792;151.032;2023-12-07T05:46:05;101054.77;;;26.86;58.65
81162;BME280;70638;-33.792;151.032;2023-12-07T05:51:05;101057.23;;;25.93;59.98
81162;BME280;70638;-33.792;151.032;2023-12-07T05:53:36;101052.05;;;25.89;60.59
81162;BME280;70638;-33.792;151.032;2023-12-07T05:56:08;101048.94;;;26.24;61.08
81162;BME280;70638;-33.792;151.032;2023-12-07T05:58:38;101061.52;;;26.27;59.97
81162;BME280;70638;-33.792;151.032;2023-12-07T06:01:09;101057.31;;;26.18;60.98
81162;BME280;70638;-33.792;151.032;2023-12-07T06:03:38;101049.68;;;26.23;61.86
81162;BME280;70638;-33.792;151.032;2023-12-07T06:06:23;101050.55;;;26.32;59.06
81162;BME280;70638;-33.792;151.032;2023-12-07T06:08:40;101047.39;;;26.17;59.60
81162;BME280;70638;-33.792;151.032;2023-12-07T06:11:16;101060.08;;;26.08;60.55
81162;BME280;70638;-33.792;151.032;2023-12-07T06:13:42;101084.72;;;25.95;60.84
81162;BME280;70638;-33.792;151.032;2023-12-07T06:16:14;101091.12;;;25.70;61.52
81162;BME280;70638;-33.792;151.032;2023-12-07T06:18:42;101100.42;;;25.46;62.29
81162;BME280;70638;-33.792;151.032;2023-12-07T06:21:23;101099.31;;;25.37;63.85
81162;BME280;70638;-33.792;151.032;2023-12-07T06:23:44;101088.90;;;25.29;63.56
81162;BME280;70638;-33.792;151.032;2023-12-07T06:26:15;101094.16;;;25.50;64.31
81162;BME280;70638;-33.792;151.032;2023-12-07T06:28:47;101103.55;;;25.61;63.92
81162;BME280;70638;-33.792;151.032;2023-12-07T06:31:19;101103.56;;;25.27;64.01
81162;BME280;70638;-33.792;151.032;2023-12-07T06:33:46;101107.72;;;25.26;65.32
81162;BME280;70638;-33.792;151.032;2023-12-07T06:36:19;101101.36;;;25.17;64.96
81162;BME280;70638;-33.792;151.032;2023-12-07T06:38:46;101107.97;;;25.23;64.85
81162;BME280;70638;-33.792;151.032;2023-12-07T06:41:17;101111.76;;;25.26;65.22
81162;BME280;70638;-33.792;151.032;2023-12-07T06:43:48;101106.68;;;25.32;65.75
81162;BME280;70638;-33.792;151.032;2023-12-07T06:46:19;101113.34;;;25.37;64.47
81162;BME280;70638;-33.792;151.032;2023-12-07T06:48:49;101123.50;;;25.09;65.36
81162;BME280;70638;-33.792;151.032;2023-12-07T06:51:20;101121.66;;;24.77;65.56
81162;BME280;70638;-33.792;151.032;2023-12-07T06:53:51;101118.94;;;24.63;67.57
81162;BME280;70638;-33.792;151.032;2023-12-07T06:56:21;101131.31;;;24.43;68.02
81162;BME280;70638;-33.792;151.032;2023-12-07T06:58:52;101136.84;;;24.42;68.84
81162;BME280;70638;-33.792;151.032;2023-12-07T07:01:23;101154.10;;;24.36;68.74
81162;BME280;70638;-33.792;151.032;2023-12-07T07:03:55;101173.02;;;24.57;67.85
81162;BME280;70638;-33.792;151.032;2023-12-07T07:06:27;101163.39;;;24.60;67.82
81162;BME280;70638;-33.792;151.032;2023-12-07T07:08:55;101171.42;;;24.65;66.90
81162;BME280;70638;-33.792;151.032;2023-12-07T07:11:27;101177.16;;;24.60;67.16
81162;BME280;70638;-33.792;151.032;2023-12-07T07:14:01;101191.27;;;24.85;67.67
81162;BME280;70638;-33.792;151.032;2023-12-07T07:16:27;101195.49;;;24.79;66.71
81162;BME280;70638;-33.792;151.032;2023-12-07T07:19:11;101197.58;;;24.45;68.43
81162;BME280;70638;-33.792;151.032;2023-12-07T07:21:34;101203.48;;;24.16;69.17
81162;BME280;70638;-33.792;151.032;2023-12-07T07:24:02;101212.61;;;23.96;70.07
81162;BME280;70638;-33.792;151.032;2023-12-07T07:26:30;101220.31;;;23.69;70.95
81162;BME280;70638;-33.792;151.032;2023-12-07T07:29:01;101236.02;;;23.80;70.73
81162;BME280;70638;-33.792;151.032;2023-12-07T07:31:33;101243.83;;;23.87;70.76
81162;BME280;70638;-33.792;151.032;2023-12-07T07:34:08;101248.45;;;23.88;69.79
81162;BME280;70638;-33.792;151.032;2023-12-07T07:36:45;101244.66;;;23.80;70.04
81162;BME280;70638;-33.792;151.032;2023-12-07T07:39:13;101259.28;;;23.72;70.94
81162;BME280;70638;-33.792;151.032;2023-12-07T07:41:34;101255.31;;;23.75;70.70
81162;BME280;70638;-33.792;151.032;2023-12-07T07:44:04;101264.42;;;23.84;70.95
81162;BME280;70638;-33.792;151.032;2023-12-07T07:46:34;101273.06;;;23.81;70.65
81162;BME280;70638;-33.792;151.032;2023-12-07T07:49:07;101266.77;;;23.56;71.95
81162;BME280;70638;-33.792;151.032;2023-12-07T07:51:35;101275.84;;;23.50;72.52
81162;BME280;70638;-33.792;151.032;2023-12-07T07:54:11;101285.38;;;23.44;73.65
81162;BME280;70638;-33.792;151.032;2023-12-07T07:56:38;101305.65;;;23.29;72.30
81162;BME280;70638;-33.792;151.032;2023-12-07T07:59:07;101315.78;;;23.10;73.52
81162;BME280;70638;-33.792;151.032;2023-12-07T08:01:38;101319.64;;;23.00;74.08
81162;BME280;70638;-33.792;151.032;2023-12-07T08:04:10;101313.77;;;23.06;74.35
81162;BME280;70638;-33.792;151.032;2023-12-07T08:06:39;101315.81;;;23.17;74.42
81162;BME280;70638;-33.792;151.032;2023-12-07T08:09:11;101327.17;;;23.11;74.43
81162;BME280;70638;-33.792;151.032;2023-12-07T08:11:41;101329.52;;;22.98;74.95
81162;BME280;70638;-33.792;151.032;2023-12-07T08:14:12;101336.55;;;22.98;75.65
81162;BME280;70638;-33.792;151.032;2023-12-07T08:16:46;101336.56;;;23.08;76.25
81162;BME280;70638;-33.792;151.032;2023-12-07T08:19:14;101342.02;;;23.00;75.62
81162;BME280;70638;-33.792;151.032;2023-12-07T08:21:44;101347.30;;;22.95;75.87
81162;BME280;70638;-33.792;151.032;2023-12-07T08:24:16;101354.53;;;22.93;76.60
81162;BME280;70638;-33.792;151.032;2023-12-07T08:26:46;101355.75;;;22.87;76.43
81162;BME280;70638;-33.792;151.032;2023-12-07T08:29:16;101351.44;;;22.83;76.88
81162;BME280;70638;-33.792;151.032;2023-12-07T08:31:46;101347.39;;;22.84;77.67
81162;BME280;70638;-33.792;151.032;2023-12-07T08:34:17;101344.54;;;22.81;77.29
81162;BME280;70638;-33.792;151.032;2023-12-07T08:36:50;101350.74;;;22.72;77.83
81162;BME280;70638;-33.792;151.032;2023-12-07T08:39:17;101338.62;;;22.69;79.50
81162;BME280;70638;-33.792;151.032;2023-12-07T08:41:48;101332.45;;;22.58;78.82
81162;BME280;70638;-33.792;151.032;2023-12-07T08:44:19;101330.77;;;22.44;77.99
81162;BME280;70638;-33.792;151.032;2023-12-07T08:46:50;101326.55;;;22.35;79.48
81162;BME280;70638;-33.792;151.032;2023-12-07T08:49:21;101309.41;;;22.28;79.46
81162;BME280;70638;-33.792;151.032;2023-12-07T08:51:56;101307.09;;;22.22;79.59
81162;BME280;70638;-33.792;151.032;2023-12-07T08:54:22;101303.22;;;22.19;80.71
81162;BME280;70638;-33.792;151.032;2023-12-07T08:56:53;101298.23;;;22.16;79.85
81162;BME280;70638;-33.792;151.032;2023-12-07T08:59:30;101292.72;;;22.21;81.34
81162;BME280;70638;-33.792;151.032;2023-12-07T09:02:03;101284.09;;;22.11;79.75
81162;BME280;70638;-33.792;151.032;2023-12-07T09:04:25;101275.28;;;22.10;81.40
81162;BME280;70638;-33.792;151.032;2023-12-07T09:06:56;101284.53;;;22.04;79.38
81162;BME280;70638;-33.792;151.032;2023-12-07T09:09:27;101305.73;;;21.99;80.49
81162;BME280;70638;-33.792;151.032;2023-12-07T09:11:56;101336.23;;;21.91;80.19
81162;BME280;70638;-33.792;151.032;2023-12-07T09:14:29;101341.44;;;21.87;81.62
81162;BME280;70638;-33.792;151.032;2023-12-07T09:16:58;101342.34;;;21.82;82.89
81162;BME280;70638;-33.792;151.032;2023-12-07T09:19:34;101338.71;;;21.77;82.24
81162;BME280;70638;-33.792;151.032;2023-12-07T09:21:59;101335.64;;;21.71;81.11
81162;BME280;70638;-33.792;151.032;2023-12-07T09:24:33;101341.82;;;21.68;81.51
81162;BME280;70638;-33.792;151.032;2023-12-07T09:27:01;101346.81;;;21.64;81.33
81162;BME280;70638;-33.792;151.032;2023-12-07T09:29:31;101338.83;;;21.59;81.62
81162;BME280;70638;-33.792;151.032;2023-12-07T09:32:02;101328.77;;;21.57;81.66
81162;BME280;70638;-33.792;151.032;2023-12-07T09:34:33;101324.37;;;21.59;82.78
81162;BME280;70638;-33.792;151.032;2023-12-07T09:37:09;101317.59;;;21.61;81.60
81162;BME280;70638;-33.792;151.032;2023-12-07T09:39:34;101311.25;;;21.61;81.61
81162;BME280;70638;-33.792;151.032;2023-12-07T09:42:11;101300.22;;;21.67;82.73
81162;BME280;70638;-33.792;151.032;2023-12-07T09:44:35;101294.52;;;21.72;82.96
81162;BME280;70638;-33.792;151.032;2023-12-07T09:47:06;101282.85;;;21.73;81.52
81162;BME280;70638;-33.792;151.032;2023-12-07T09:49:36;101275.48;;;21.75;82.23
81162;BME280;70638;-33.792;151.032;2023-12-07T09:52:08;101284.00;;;21.79;82.29
81162;BME280;70638;-33.792;151.032;2023-12-07T09:54:41;101293.44;;;21.77;82.38
81162;BME280;70638;-33.792;151.032;2023-12-07T09:57:08;101306.36;;;21.78;82.10
81162;BME280;70638;-33.792;151.032;2023-12-07T09:59:40;101320.53;;;21.66;81.91
81162;BME280;70638;-33.792;151.032;2023-12-07T10:02:15;101324.83;;;21.57;82.59
81162;BME280;70638;-33.792;151.032;2023-12-07T10:04:41;101323.61;;;21.52;84.36
81162;BME280;70638;-33.792;151.032;2023-12-07T10:07:31;101324.22;;;21.50;83.71
81162;BME280;70638;-33.792;151.032;2023-12-07T10:09:47;101328.11;;;21.53;84.52
81162;BME280;70638;-33.792;151.032;2023-12-07T10:12:12;101318.75;;;21.50;83.50
81162;BME280;70638;-33.792;151.032;2023-12-07T10:14:42;101316.94;;;21.49;83.84
81162;BME280;70638;-33.792;151.032;2023-12-07T10:17:13;101313.38;;;21.47;83.97
81162;BME280;70638;-33.792;151.032;2023-12-07T10:19:44;101297.50;;;21.43;84.50
81162;BME280;70638;-33.792;151.032;2023-12-07T10:22:19;101288.03;;;21.42;84.23
81162;BME280;70638;-33.792;151.032;2023-12-07T10:24:49;101281.67;;;21.43;84.05
81162;BME280;70638;-33.792;151.032;2023-12-07T10:27:19;101281.70;;;21.42;84.57
81162;BME280;70638;-33.792;151.032;2023-12-07T10:29:52;101284.25;;;21.44;84.57
81162;BME280;70638;-33.792;151.032;2023-12-07T10:32:16;101274.18;;;21.41;84.97
81162;BME280;70638;-33.792;151.032;2023-12-07T10:34:47;101267.31;;;21.44;84.19
81162;BME280;70638;-33.792;151.032;2023-12-07T10:37:18;101280.86;;;21.48;84.08
81162;BME280;70638;-33.792;151.032;2023-12-07T10:39:49;101294.92;;;21.53;83.53
81162;BME280;70638;-33.792;151.032;2023-12-07T10:42:25;101309.55;;;21.61;83.61
81162;BME280;70638;-33.792;151.032;2023-12-07T10:44:50;101332.42;;;21.58;83.27
81162;BME280;70638;-33.792;151.032;2023-12-07T10:47:21;101361.44;;;21.60;83.57
81162;BME280;70638;-33.792;151.032;2023-12-07T10:49:54;101370.52;;;21.66;82.90
81162;BME280;70638;-33.792;151.032;2023-12-07T10:52:24;101371.70;;;21.59;83.55
81162;BME280;70638;-33.792;151.032;2023-12-07T10:57:23;101362.95;;;21.44;84.03
81162;BME280;70638;-33.792;151.032;2023-12-07T10:59:55;101367.34;;;21.37;84.49
81162;BME280;70638;-33.792;151.032;2023-12-07T11:02:23;101376.06;;;21.31;84.97
81162;BME280;70638;-33.792;151.032;2023-12-07T11:04:59;101377.37;;;21.26;85.59
81162;BME280;70638;-33.792;151.032;2023-12-07T11:07:33;101373.19;;;21.24;85.70
81162;BME280;70638;-33.792;151.032;2023-12-07T11:10:05;101369.56;;;21.28;85.54
81162;BME280;70638;-33.792;151.032;2023-12-07T11:12:38;101375.05;;;21.35;85.89
81162;BME280;70638;-33.792;151.032;2023-12-07T11:14:56;101378.89;;;21.37;85.20
81162;BME280;70638;-33.792;151.032;2023-12-07T11:17:27;101394.96;;;21.41;84.96
81162;BME280;70638;-33.792;151.032;2023-12-07T11:19:57;101400.69;;;21.43;84.81
81162;BME280;70638;-33.792;151.032;2023-12-07T11:22:29;101405.88;;;21.45;85.69
81162;BME280;70638;-33.792;151.032;2023-12-07T11:25:05;101411.75;;;21.42;84.89
81162;BME280;70638;-33.792;151.032;2023-12-07T11:27:32;101414.27;;;21.39;85.94
81162;BME280;70638;-33.792;151.032;2023-12-07T11:30:00;101416.48;;;21.34;86.01
81162;BME280;70638;-33.792;151.032;2023-12-07T11:32:30;101419.58;;;21.31;85.86
81162;BME280;70638;-33.792;151.032;2023-12-07T11:35:06;101434.14;;;21.29;85.82
81162;BME280;70638;-33.792;151.032;2023-12-07T11:40:00;101442.36;;;21.29;86.71
81162;BME280;70638;-33.792;151.032;2023-12-07T11:42:34;101437.91;;;21.31;86.72
81162;BME280;70638;-33.792;151.032;2023-12-07T11:45:10;101430.97;;;21.31;86.00
81162;BME280;70638;-33.792;151.032;2023-12-07T11:47:32;101428.88;;;21.36;86.27
81162;BME280;70638;-33.792;151.032;2023-12-07T11:50:04;101422.80;;;21.35;86.62
81162;BME280;70638;-33.792;151.032;2023-12-07T11:52:34;101429.23;;;21.34;86.87
81162;BME280;70638;-33.792;151.032;2023-12-07T11:55:05;101438.53;;;21.35;87.18
81162;BME280;70638;-33.792;151.032;2023-12-07T11:57:35;101444.70;;;21.35;86.58
81162;BME280;70638;-33.792;151.032;2023-12-07T12:00:06;101433.31;;;21.35;86.10
81162;BME280;70638;-33.792;151.032;2023-12-07T12:02:40;101440.95;;;21.39;86.41
81162;BME280;70638;-33.792;151.032;2023-12-07T12:05:07;101430.69;;;21.39;86.03
81162;BME280;70638;-33.792;151.032;2023-12-07T12:07:40;101438.55;;;21.39;87.12
81162;BME280;70638;-33.792;151.032;2023-12-07T12:10:08;101441.89;;;21.34;87.07
81162;BME280;70638;-33.792;151.032;2023-12-07T12:12:43;101450.20;;;21.31;87.45
81162;BME280;70638;-33.792;151.032;2023-12-07T12:15:11;101445.83;;;21.32;87.83
81162;BME280;70638;-33.792;151.032;2023-12-07T12:17:38;101442.43;;;21.31;86.93
81162;BME280;70638;-33.792;151.032;2023-12-07T12:20:10;101436.69;;;21.30;87.05
81162;BME280;70638;-33.792;151.032;2023-12-07T12:22:39;101441.71;;;21.24;87.00
81162;BME280;70638;-33.792;151.032;2023-12-07T12:25:10;101441.42;;;21.27;88.71
81162;BME280;70638;-33.792;151.032;2023-12-07T12:27:46;101441.29;;;21.23;88.10
81162;BME280;70638;-33.792;151.032;2023-12-07T12:30:11;101442.59;;;21.21;88.75
81162;BME280;70638;-33.792;151.032;2023-12-07T12:32:47;101435.92;;;21.19;89.23
81162;BME280;70638;-33.792;151.032;2023-12-07T12:35:13;101421.03;;;21.21;88.76
81162;BME280;70638;-33.792;151.032;2023-12-07T12:37:43;101402.80;;;21.23;88.81
81162;BME280;70638;-33.792;151.032;2023-12-07T12:40:14;101386.27;;;21.25;88.96
81162;BME280;70638;-33.792;151.032;2023-12-07T12:42:47;101364.77;;;21.20;89.29
81162;BME280;70638;-33.792;151.032;2023-12-07T12:45:17;101347.68;;;21.18;92.44
81162;BME280;70638;-33.792;151.032;2023-12-07T12:47:49;101315.27;;;21.09;92.59